• Join FlightAware (Why Join?)
  • Login
  • US Flag 
03:35PM EDT


 

Airport Tracker/Info


-or-


 

Live Flight TrackerFlight Track Log ✈ N92PS ✈ 05-Mar-2014 ✈ KDET - 76N

Flight Track Log - Related Links

Times and Time Zones

All times are in EST time to prevent confusion due to time zone crossing. See the N92PS flight status page for this flight to view local times or setup timezone preferences in your user account.

Time Position Orientation Groundspeed Altitude Reporting Facility
EST Latitude Longitude Course Direction KTS MPH feet Rate Location/Type
01:55PM 42.3936 -82.9953 114° Southeast 122 140 1,400  Level Cleveland Center
01:57PM 42.3519 -82.9642 151° Southeast 130 150 2,800 900 Climbing Cleveland Center
01:57PM 42.3519 -82.9619 90° East 123 142 2,900 1,020 Climbing Cleveland Center
01:58PM 42.3403 -82.9231 112° Southeast 119 137 3,900 1,020 Climbing Cleveland Center
01:58PM 42.3414 -82.9214 48° Northeast 121 139 4,000 780 Climbing Cleveland Center
01:59PM 42.3356 -82.8744 100° East 135 155 4,700 840 Climbing Cleveland Center
01:59PM 42.3372 -82.8622 80° East 127 146 4,900 840 Climbing Cleveland Center
02:00PM 42.3417 -82.8214 82° East 139 160 5,600 720 Climbing Cleveland Center
02:00PM 42.3425 -82.8092 85° East 137 158 5,700 720 Climbing Cleveland Center
02:00PM 42.3428 -82.7764 89° East 149 171 6,200 720 Climbing Cleveland Center
02:01PM 42.3713 -82.6472 114° Southeast  Level FlightAware Approximate
02:01PM 42.3450 -82.7525 83° East 146 168 6,500  Level Cleveland Center
02:02PM 42.3492 -82.7181 81° East 152 175 7,100 720 Climbing Cleveland Center
02:02PM 42.3533 -82.6972 75° East 146 168 7,300 780 Climbing Cleveland Center
02:03PM 42.3597 -82.6417 81° East 147 169 8,400 840 Climbing Cleveland Center
02:04PM 42.3658 -82.5839 82° East 150 173 9,100 300 Climbing Cleveland Center
02:05PM 42.3689 -82.5022 87° East 179 206 9,100 -60 Level Cleveland Center
02:06PM 42.3675 -82.4250 91° East 200 230 9,000 240 Descending Cleveland Center
02:07PM 42.3569 -82.3497 101° East 203 234 9,600 660 Climbing Cleveland Center
02:08PM 42.3497 -82.2847 99° East 184 212 10,400 780 Climbing Cleveland Center
02:09PM 42.3425 -82.2197 99° East 179 206 11,300 780 Climbing Cleveland Center
02:10PM 42.3367 -82.1592 97° East 170 196 12,100 720 Climbing Cleveland Center
02:11PM 42.3281 -82.0794 98° East 174 200 12,900 480 Climbing Cleveland Center
02:12PM 42.3211 -82.0061 97° East 190 219 13,100 60 Climbing Cleveland Center
02:13PM 42.3106 -81.9214 100° East 217 250 13,100 -120 Level Cleveland Center
02:19PM 42.2552 -81.4392 93° East 226 260 12,600 -60 Descending FlightAware ADS-B (CYYZ)
02:20PM 42.2525 -81.3947 93° East 229 264 13,000 240 Climbing Cleveland Center
02:21PM 42.2411 -81.3083 100° East 229 264 13,000 -60 Level Cleveland Center
02:27PM 42.1851 -80.7883 100° East 234 269 12,600 -120 Descending FlightAware ADS-B (CYKZ)
02:27PM 42.1823 -80.7689 101° East 235 270 12,600  Level FlightAware ADS-B (CYYZ)
02:27PM 42.1801 -80.7539 100° East 234 269 12,600 180 Level FlightAware ADS-B (CYYZ)
02:27PM 42.1765 -80.7243 99° East 234 269 12,700 120 Climbing FlightAware ADS-B (CYKZ)
02:28PM 42.1740 -80.7026 99° East 236 272 12,700 -180 Level FlightAware ADS-B (CYYZ)
02:28PM 42.1693 -80.6632 99° East 240 276 12,600 -180 Descending FlightAware ADS-B (CYKZ)
02:29PM 42.1637 -80.6103 98° East 237 273 12,600  Level FlightAware ADS-B (CYKZ)
02:29PM 42.1634 -80.6073 97° East 238 274 12,600 -240 Level FlightAware ADS-B (CYYZ)
02:29PM 42.1596 -80.5642 97° East 238 274 12,500  Descending FlightAware ADS-B (CYKZ)
02:30PM 42.1563 -80.5216 96° East 234 269 12,600 60 Climbing FlightAware ADS-B (CYKZ)
02:30PM 42.1508 -80.4554 96° East 235 270 12,600  Level FlightAware ADS-B (CYYZ)
02:31PM 42.1486 -80.4287 97° East 235 270 12,600  Level FlightAware ADS-B (CYKZ)
02:31PM 42.1478 -80.4200 97° East 235 270 12,600  Level FlightAware ADS-B (CYYZ)
02:31PM 42.1420 -80.3677 99° East 239 275 12,600  Level FlightAware ADS-B (CYYZ)
02:32PM 42.1350 -80.3167 101° East 237 273 12,600  Level FlightAware ADS-B (CYYZ)
02:32PM 42.1288 -80.2737 101° East 235 270 12,600  Level FlightAware ADS-B (CYYZ)
02:33PM 42.1222 -80.2309 101° East 239 275 12,600  Level FlightAware ADS-B (CYYZ)
02:33PM 42.1212 -80.2244 102° East 238 274 12,600  Level FlightAware ADS-B (CYKZ)
02:33PM 42.1158 -80.1877 100° East 238 274 12,600  Level FlightAware ADS-B (CYYZ)
02:34PM 42.1091 -80.1295 99° East 240 276 12,600 60 Level FlightAware ADS-B (CYYZ)
02:35PM 42.1003 -80.0559 99° East 236 272 12,700  Climbing FlightAware ADS-B (CYYZ)
02:36PM 42.0948 -80.0122 99° East 238 274 12,600 -120 Descending FlightAware ADS-B (CYYZ)
02:36PM 42.0832 -79.9326 102° East 240 276 12,600  Level FlightAware ADS-B (CYYZ)
02:37PM 42.0744 -79.8744 100° East 240 276 12,600  Level FlightAware ADS-B (CYYZ)
02:38PM 42.0687 -79.8302 99° East 241 277 12,600  Level FlightAware ADS-B (CYYZ)
02:38PM 42.0636 -79.7884 99° East 241 277 12,600  Level FlightAware ADS-B (CYYZ)
02:39PM 42.0535 -79.7050 100° East 240 276 12,600  Level FlightAware ADS-B (CYYZ)
02:39PM 42.0485 -79.6642 99° East 242 278 12,600  Level FlightAware ADS-B (CYYZ)
02:40PM 42.0476 -79.6573 100° East 241 277 12,600  Level FlightAware ADS-B (CYKZ)
02:40PM 42.0430 -79.6164 98° East 243 280 12,600 120 Level FlightAware ADS-B (CYYZ)
02:40PM 42.0414 -79.5994 97° East 241 277 12,700  Climbing FlightAware ADS-B (CYKZ)
02:41PM 42.0401 -79.5841 95° East 245 282 12,600 -180 Descending FlightAware ADS-B (CYYZ)
02:41PM 42.0368 -79.5390 95° East 247 284 12,600 -240 Level FlightAware ADS-B (CYKZ)
02:41PM 42.0359 -79.5250 94° East 251 289 12,500 -600 Descending FlightAware ADS-B (CYYZ)
02:42PM 42.0328 -79.4750 96° East 256 295 12,200 -180 Descending FlightAware ADS-B (CYYZ)
02:42PM 42.0269 -79.4203 96° East 252 290 12,300  Climbing Cleveland Center
02:43PM 42.0128 -79.3108 100° East 252 290 12,200 -60 Descending Cleveland Center
02:44PM 41.9989 -79.2247 102° East 240 276 12,200  Level Cleveland Center
02:45PM 41.9864 -79.1369 101° East 238 274 12,200  Level Cleveland Center
02:46PM 41.9719 -79.0525 103° East 236 272 12,300  Climbing Cleveland Center
02:47PM 41.9617 -78.9667 99° East 236 272 12,200 -60 Descending Cleveland Center
02:49PM 41.9536 -78.8792 97° East 236 272 12,200  Level Cleveland Center
02:50PM 41.9422 -78.7747 98° East 236 272 12,200  Level Cleveland Center
02:51PM 41.9311 -78.6872 100° East 236 272 12,200  Level Cleveland Center
02:52PM 41.9203 -78.6003 99° East 236 272 12,200 -120 Level Cleveland Center
02:53PM 41.9097 -78.5131 99° East 237 273 12,000 -60 Descending Cleveland Center
02:54PM 41.8981 -78.4244 100° East 237 273 12,100  Climbing Cleveland Center
02:55PM 41.8864 -78.3358 100° East 237 273 12,100 -60 Level Cleveland Center
02:56PM 41.8708 -78.2306 101° East 238 274 12,000 -180 Descending Cleveland Center
02:57PM 41.8572 -78.1428 102° East 238 274 11,800 -540 Descending Cleveland Center
02:58PM 41.8403 -78.0492 104° East 250 288 11,000 -420 Descending Cleveland Center
02:59PM 41.8239 -77.9575 103° East 255 293 11,000 60 Level Cleveland Center
03:00PM 41.8114 -77.8675 101° East 245 282 11,200  Climbing New York Center
03:01PM 41.8022 -77.7775 98° East 245 282 11,100 -60 Descending New York Center
03:02PM 41.7928 -77.6900 98° East 240 276 11,100  Level New York Center
03:03PM 41.7831 -77.6028 98° East 240 276 11,100  Level New York Center
03:04PM 41.7714 -77.5153 100° East 240 276 11,100  Level New York Center
03:05PM 41.7594 -77.4308 101° East 240 276 11,200  Climbing New York Center
03:06PM 41.7458 -77.3431 102° East 240 276 11,100 -60 Descending New York Center
03:07PM 41.7317 -77.2583 103° East 240 276 11,100 -480 Level New York Center
03:08PM 41.7164 -77.1569 101° East 246 283 10,200 -1,080 Descending New York Center
03:09PM 41.7008 -77.0581 102° East 251 289 9,000 -600 Descending New York Center
03:10PM 41.6867 -76.9678 102° East 251 289 9,000  Level New York Center
03:11PM 41.6742 -76.8889 102° East 240 276 9,000  Level New York Center
03:12PM 41.6597 -76.8042 103° East 230 265 9,000  Level New York Center
03:13PM 41.6492 -76.7256 100° East 223 257 9,000  Level New York Center
03:14PM 41.6361 -76.6494 103° East 229 264 9,100  Climbing New York Center
03:15PM 41.6236 -76.5678 102° East 224 258 9,100 -60 Level New York Center
03:16PM 41.6092 -76.4778 102° East 224 258 9,000 -660 Descending New York Center
03:17PM 41.5947 -76.3906 102° East 233 268 7,800 -1,020 Descending New York Center
03:18PM 41.5800 -76.3033 103° East 238 274 7,000 -720 Descending New York Center
03:19PM 41.5667 -76.2331 104° East 224 258 6,400 -780 Descending New York Center
03:20PM 41.5536 -76.1517 102° East 212 244 5,500 -960 Descending New York Center
03:21PM 41.5464 -76.0789 98° East 207 238 4,500 -600 Descending New York Center
03:22PM 41.5331 -76.0086 104° East 202 232 4,300 2,220 Descending New York Center
03:23PM 41.5194 -75.9383 104° East 202 232 9,000 2,340 Climbing New York Center
03:24PM 41.5078 -75.8681 102° East 202 232 9,000  Level New York Center
03:25PM 41.4942 -75.7978 104° East 202 232 9,000  Level New York Center
03:26PM 41.4892 -75.7697 103° East 202 232 9,000  Level New York Center
03:27PM 41.4892 -75.7697 207° Southwest 202 232 9,000  Level New York Center
03:29PM 41.5104 -75.8959 283° West  Level FlightAware Approximate
03:36PM 41.5167 -75.9333 285° West  Level FlightAware Approximate
03:37PM 41.5292 -75.9469 285° West  Level Estimated
03:38PM 41.5292 -75.9469 285° West  Level Estimated
03:39PM 41.5292 -75.9469 285° West  Level Estimated
03:40PM 41.5292 -75.9469 285° West  Level Estimated
03:41PM 41.5292 -75.9469 285° West  Level Estimated
03:42PM 41.5292 -75.9469 285° West  Level Estimated
03:43PM 41.5292 -75.9469 285° West  Level Estimated